Nalut, Libya

11:01 PM EET on February 09, 2016 (GMT +0200)
Remada | | Change Station
CLOSE
Current Station
Airport
Location: Remada,
Elevation: 988 ft
Nearby Weather Stations

Elev 988 ft 32.32 °N, 10.40 °E | Updated 1 hour ago

Clear
Clear
59 °F
Feels Like 59 °F
N
14
Wind Variable Wind from WSW

Today
High -- | Low -- °F
--% Chance of Precip.
Yesterday
High -- | Low -- °F
Precip. -- in
Pressure 30.24 in
Visibility -9999.0 miles
Clouds
Dew Point 27 °F
Humidity 29%
Rainfall 0.00 in
Snow Depth Not available.
8:04 AM 6:56 PM
New Moon, 2% visible
METAR DTTD 092000Z AUTO 24012KT 200V260 NCD 15/M03 Q1024
Pressure 30.24 in
Visibility -9999.0 miles
Clouds
Dew Point 27 °F
Humidity 29%
Rainfall 0.00 in
Snow Depth Not available.
8:04 AM 6:56 PM
New Moon, 2% visible
METAR DTTD 092000Z AUTO 24012KT 200V260 NCD 15/M03 Q1024

10-Day Weather Forecast

No radar image for this location.
×

Almanac

Astronomy

Feb. 09, 2016 Rise Set
Actual Time
Civil Twilight
Nautical Twilight
Astronomical Twilight
Moon
Length of Visible Light
Length of Day
Tomorrow will be .
, % of the Moon is Illuminated

Today's Extremes

Country Highs Country Lows

Community

WunderPhotos

Upload Photos

1,891,699 photos uploaded!

WunderBlog® & News

Nearby

Air Quality

  Air Quality AQ Index Pollutant
Not available.

Snow Depth

Station Depth Elevation

Earthquake Activity

City Distance Mag. Time & Date
Minimum magnitude displayed is 2.5.

Coastal Water Temperatures

Place Temperature

Stations

Nearby Weather Stations

Station Location Temp. Windchill Dew Point Humidity Wind Precip. Elev Updated Type